createdAt,value
2022-12-11T00:00:52.034Z,9.07
2022-12-11T00:03:19.328Z,13.00
2022-12-11T00:05:46.832Z,15.38
2022-12-11T00:08:14.077Z,16.23
2022-12-11T00:10:47.824Z,15.80
2022-12-11T00:13:14.759Z,13.52
2022-12-11T00:15:41.542Z,14.60
2022-12-11T00:18:13.010Z,14.80
2022-12-11T00:20:39.901Z,14.40
2022-12-11T00:23:06.700Z,16.02
2022-12-11T00:25:33.553Z,14.23
2022-12-11T00:28:00.360Z,12.05
2022-12-11T00:30:27.278Z,10.88
2022-12-11T00:32:54.331Z,12.30
2022-12-11T00:35:21.156Z,11.10
2022-12-11T00:37:48.215Z,9.50
2022-12-11T00:40:15.347Z,9.85
2022-12-11T00:42:42.108Z,10.70
2022-12-11T00:45:11.925Z,11.27
2022-12-11T00:47:39.313Z,12.23
2022-12-11T00:50:07.406Z,11.15
2022-12-11T00:52:35.004Z,10.48
2022-12-11T00:55:01.923Z,12.10
2022-12-11T00:57:28.955Z,13.52
2022-12-11T00:59:55.872Z,12.15
2022-12-11T01:02:22.776Z,12.77
2022-12-11T01:04:50.103Z,12.60
2022-12-11T01:07:17.173Z,11.88
2022-12-11T01:10:02.438Z,10.57
2022-12-11T01:12:29.418Z,12.38
2022-12-11T01:14:56.198Z,11.63
2022-12-11T01:17:24.536Z,11.70
2022-12-11T01:19:55.874Z,11.23
2022-12-11T01:22:23.554Z,12.32
2022-12-11T01:24:50.351Z,13.30
2022-12-11T01:27:17.745Z,14.70
2022-12-11T01:29:46.017Z,12.90
2022-12-11T01:32:15.137Z,13.43
2022-12-11T01:34:46.074Z,13.80
2022-12-11T01:37:17.333Z,14.85
2022-12-11T01:39:44.354Z,14.88
2022-12-11T01:42:23.526Z,13.88
2022-12-11T01:44:50.483Z,13.43
2022-12-11T01:47:20.431Z,13.70
2022-12-11T01:49:52.125Z,12.15
2022-12-11T01:52:22.470Z,14.02
2022-12-11T01:54:51.514Z,16.00
2022-12-11T01:57:19.441Z,12.80
2022-12-11T01:59:46.867Z,13.38
2022-12-11T02:02:42.353Z,12.02
2022-12-11T02:05:10.382Z,11.80
2022-12-11T02:07:55.487Z,11.50
2022-12-11T02:10:33.421Z,10.60
2022-12-11T02:13:11.587Z,8.88
2022-12-11T02:15:50.896Z,9.13
2022-12-11T02:18:47.311Z,10.18
2022-12-11T02:21:23.663Z,10.57
2022-12-11T02:23:59.571Z,10.38
2022-12-11T02:26:41.426Z,9.40
2022-12-11T02:29:45.919Z,9.60
2022-12-11T02:32:24.246Z,8.77
2022-12-11T02:35:08.543Z,9.90
2022-12-11T02:37:39.263Z,12.02
2022-12-11T02:40:09.457Z,9.43
2022-12-11T02:45:08.184Z,8.52
2022-12-11T02:47:37.349Z,10.23
2022-12-11T02:50:09.974Z,9.25
2022-12-11T02:52:39.267Z,8.73
2022-12-11T02:55:08.976Z,8.15
2022-12-11T02:57:54.122Z,9.10
2022-12-11T03:00:21.936Z,8.75
2022-12-11T03:02:48.778Z,8.43
2022-12-11T03:05:16.295Z,9.10
2022-12-11T03:07:44.549Z,9.57
2022-12-11T03:10:15.276Z,8.98
2022-12-11T03:12:50.415Z,8.80
2022-12-11T03:15:23.492Z,8.43
2022-12-11T03:20:45.130Z,8.48
2022-12-11T03:23:30.858Z,7.93
2022-12-11T03:26:02.509Z,7.97
2022-12-11T03:28:49.787Z,7.95
2022-12-11T03:31:31.010Z,8.18
2022-12-11T03:34:03.837Z,9.30
2022-12-11T03:36:35.136Z,8.63
2022-12-11T03:39:13.301Z,8.75
2022-12-11T03:41:41.226Z,8.20
2022-12-11T03:44:09.418Z,9.45
2022-12-11T03:46:40.376Z,8.75
2022-12-11T03:49:19.803Z,9.25
2022-12-11T03:51:50.856Z,9.10
2022-12-11T03:54:19.109Z,9.02
2022-12-11T03:56:48.324Z,9.32
2022-12-11T03:59:15.158Z,9.25
2022-12-11T04:01:42.398Z,8.85
2022-12-11T04:04:09.398Z,9.32
2022-12-11T04:06:36.211Z,8.73
2022-12-11T04:09:03.219Z,9.90
2022-12-11T04:11:35.969Z,8.98
2022-12-11T04:14:26.035Z,9.65
2022-12-11T04:16:53.357Z,8.98
2022-12-11T04:19:39.226Z,9.00
2022-12-11T04:22:25.680Z,8.65
2022-12-11T04:24:52.761Z,9.85
2022-12-11T04:27:39.857Z,9.98
2022-12-11T04:30:10.330Z,9.80
2022-12-11T04:32:37.278Z,9.25
2022-12-11T04:35:05.026Z,9.05
2022-12-11T04:37:31.935Z,9.73
2022-12-11T04:39:58.731Z,9.50
2022-12-11T04:42:25.593Z,10.15
2022-12-11T04:44:52.447Z,10.23
2022-12-11T04:47:19.396Z,10.90
2022-12-11T04:49:46.301Z,10.73
2022-12-11T04:52:13.195Z,13.07
2022-12-11T04:54:40.174Z,13.25
2022-12-11T04:57:07.071Z,13.70
2022-12-11T04:59:33.827Z,13.10
2022-12-11T05:02:01.131Z,12.15
2022-12-11T05:04:33.200Z,13.32
2022-12-11T05:07:00.732Z,13.15
2022-12-11T05:09:28.347Z,12.65
2022-12-11T05:11:56.093Z,14.10
2022-12-11T05:14:22.956Z,12.50
2022-12-11T05:16:49.935Z,15.63
2022-12-11T05:19:16.816Z,13.90
2022-12-11T05:21:43.755Z,13.77
2022-12-11T05:24:10.797Z,13.20
2022-12-11T05:26:37.727Z,13.68
2022-12-11T05:29:04.607Z,12.95
2022-12-11T05:31:31.543Z,12.60
2022-12-11T05:33:58.402Z,11.98
2022-12-11T05:36:31.353Z,13.43
2022-12-11T05:38:59.547Z,14.35
2022-12-11T05:41:30.653Z,14.13
2022-12-11T05:43:57.631Z,13.65
2022-12-11T05:46:27.291Z,12.93
2022-12-11T05:48:56.711Z,13.73
2022-12-11T05:51:24.966Z,13.93
2022-12-11T05:53:53.653Z,12.88
2022-12-11T05:56:23.923Z,14.02
2022-12-11T06:01:21.205Z,15.80
2022-12-11T06:03:48.337Z,15.57
2022-12-11T06:06:15.351Z,15.45
2022-12-11T06:08:42.320Z,16.95
2022-12-11T06:11:09.679Z,17.08
2022-12-11T06:13:37.245Z,16.98
2022-12-11T06:16:06.377Z,18.00
2022-12-11T06:18:40.211Z,18.50
2022-12-11T06:21:27.882Z,17.63
2022-12-11T06:23:56.743Z,17.85
2022-12-11T06:26:24.556Z,19.63
2022-12-11T06:28:52.582Z,18.48
2022-12-11T06:31:20.745Z,18.63
2022-12-11T06:33:48.611Z,15.93
2022-12-11T06:36:18.634Z,15.25
2022-12-11T06:38:52.804Z,15.88
2022-12-11T06:41:20.073Z,14.60
2022-12-11T06:43:47.399Z,14.13
2022-12-11T06:46:17.353Z,15.15
2022-12-11T06:48:45.184Z,15.60
2022-12-11T06:51:20.691Z,15.75
2022-12-11T06:53:55.425Z,16.92
2022-12-11T06:56:23.464Z,17.95
2022-12-11T06:58:50.303Z,17.70
2022-12-11T07:01:20.753Z,17.13
2022-12-11T07:03:47.916Z,17.60
2022-12-11T07:06:15.356Z,18.38
2022-12-11T07:08:43.075Z,18.30
2022-12-11T07:11:13.524Z,18.23
2022-12-11T07:13:42.258Z,18.23
2022-12-11T07:16:11.333Z,19.05
2022-12-11T07:18:43.195Z,20.67
2022-12-11T07:21:12.780Z,18.48
2022-12-11T07:23:40.673Z,19.50
2022-12-11T07:26:10.548Z,19.20
2022-12-11T07:28:37.527Z,18.98
2022-12-11T07:31:13.145Z,17.13
2022-12-11T07:33:41.123Z,16.67
2022-12-11T07:36:10.618Z,16.75
2022-12-11T07:38:37.637Z,15.35
2022-12-11T07:41:11.119Z,15.45
2022-12-11T07:43:38.357Z,17.52
2022-12-11T07:46:08.257Z,16.60
2022-12-11T07:48:37.510Z,15.75
2022-12-11T07:51:20.333Z,16.58
2022-12-11T07:53:49.559Z,15.98
2022-12-11T07:56:17.663Z,16.05
2022-12-11T07:58:45.419Z,16.02
2022-12-11T08:01:17.064Z,14.32
2022-12-11T08:03:44.196Z,13.32
2022-12-11T08:06:11.598Z,14.20
2022-12-11T08:08:39.953Z,13.13
2022-12-11T08:11:12.296Z,13.60
2022-12-11T08:13:39.854Z,12.23
2022-12-11T08:16:08.383Z,11.73
2022-12-11T08:18:36.536Z,11.70
2022-12-11T08:21:21.290Z,12.98
2022-12-11T08:23:49.082Z,10.50
2022-12-11T08:26:28.025Z,11.25
2022-12-11T08:28:55.293Z,11.70
2022-12-11T08:31:22.584Z,11.55
2022-12-11T08:33:50.649Z,11.57
2022-12-11T08:36:22.207Z,11.45
2022-12-11T08:38:56.394Z,11.57
2022-12-11T08:41:34.587Z,14.05
2022-12-11T08:44:05.986Z,11.70
2022-12-11T08:46:46.701Z,9.77
2022-12-11T08:49:34.048Z,10.07
2022-12-11T08:52:18.209Z,10.48
2022-12-11T08:54:55.289Z,10.98
2022-12-11T08:57:39.760Z,9.95
2022-12-11T09:00:45.395Z,8.68
2022-12-11T09:03:28.481Z,9.05
2022-12-11T09:08:38.695Z,8.05
2022-12-11T09:11:13.483Z,9.43
2022-12-11T09:13:57.598Z,9.43
2022-12-11T09:16:29.699Z,10.05
2022-12-11T09:18:59.399Z,9.40
2022-12-11T09:21:32.189Z,8.63
2022-12-11T09:24:02.164Z,8.32
2022-12-11T09:26:30.325Z,8.48
2022-12-11T09:28:58.012Z,10.65
2022-12-11T09:31:31.022Z,8.98
2022-12-11T09:34:00.889Z,9.50
2022-12-11T09:36:28.039Z,9.80
2022-12-11T09:38:54.923Z,8.10
2022-12-11T09:41:21.841Z,9.15
2022-12-11T09:44:09.626Z,8.40
2022-12-11T09:46:38.594Z,8.77
2022-12-11T09:49:22.073Z,8.60
2022-12-11T09:51:58.493Z,8.25
2022-12-11T09:54:25.488Z,8.35
2022-12-11T09:57:20.714Z,8.82
2022-12-11T10:00:18.998Z,8.50
2022-12-11T10:02:51.051Z,9.45
2022-12-11T10:05:50.207Z,10.13
2022-12-11T10:08:29.213Z,9.25
2022-12-11T10:11:04.998Z,7.97
2022-12-11T10:13:54.879Z,8.63
2022-12-11T10:16:34.965Z,8.57
2022-12-11T10:21:38.582Z,9.18
2022-12-11T10:24:40.830Z,10.57
2022-12-11T10:27:16.965Z,9.98
2022-12-11T10:29:43.803Z,9.27
2022-12-11T10:32:24.710Z,10.00
2022-12-11T10:34:59.811Z,9.30
2022-12-11T10:37:27.086Z,9.77
2022-12-11T10:39:53.864Z,10.02
2022-12-11T10:42:22.859Z,10.15
2022-12-11T10:45:06.273Z,11.05
2022-12-11T10:47:34.223Z,12.80
2022-12-11T10:50:03.405Z,11.10
2022-12-11T10:52:35.266Z,10.97
2022-12-11T10:55:06.099Z,10.57
2022-12-11T10:57:36.236Z,11.40
2022-12-11T11:02:50.149Z,10.68
2022-12-11T11:05:28.356Z,12.57
2022-12-11T11:08:15.120Z,12.32
2022-12-11T11:11:02.170Z,11.20
2022-12-11T11:13:31.209Z,13.30
2022-12-11T11:16:10.036Z,12.95
2022-12-11T11:18:40.082Z,13.73
2022-12-11T11:21:16.026Z,13.05
2022-12-11T11:23:47.255Z,14.05
2022-12-11T11:26:18.638Z,14.30
2022-12-11T11:28:52.565Z,15.02
2022-12-11T11:31:21.801Z,15.45
2022-12-11T11:33:56.894Z,15.70
2022-12-11T11:36:26.866Z,14.18
2022-12-11T11:39:06.568Z,15.32
2022-12-11T11:42:14.294Z,15.27
2022-12-11T11:44:47.898Z,15.18
2022-12-11T11:47:22.192Z,14.52
2022-12-11T11:50:08.706Z,14.85
2022-12-11T11:52:40.356Z,12.85
2022-12-11T11:55:22.374Z,13.30
2022-12-11T11:58:03.013Z,13.65
2022-12-11T12:03:06.910Z,11.40
2022-12-11T12:05:42.107Z,15.02
2022-12-11T12:08:30.430Z,11.02
2022-12-11T12:11:04.391Z,9.77
2022-12-11T12:14:28.836Z,9.70
2022-12-11T12:17:26.985Z,10.52
2022-12-11T12:20:00.030Z,9.20
2022-12-11T12:22:44.983Z,8.52
2022-12-11T12:25:32.029Z,9.57
2022-12-11T12:28:27.896Z,9.45
2022-12-11T12:31:13.543Z,10.00
2022-12-11T12:34:01.855Z,10.07
2022-12-11T12:36:50.022Z,9.88
2022-12-11T12:39:37.164Z,9.73
2022-12-11T12:42:09.970Z,10.65
2022-12-11T12:45:03.922Z,9.60
2022-12-11T12:47:34.176Z,10.32
2022-12-11T12:52:32.570Z,9.35
2022-12-11T12:55:14.672Z,10.75
2022-12-11T12:57:49.418Z,11.73
2022-12-11T13:00:39.281Z,11.25
2022-12-11T13:03:30.056Z,10.15
2022-12-11T13:06:09.733Z,9.75
2022-12-11T13:08:47.392Z,11.18
2022-12-11T13:11:17.774Z,12.25
2022-12-11T13:13:54.522Z,11.05
2022-12-11T13:16:27.078Z,11.68
2022-12-11T13:18:54.686Z,12.20
2022-12-11T13:21:33.676Z,12.20
2022-12-11T13:24:15.839Z,12.95
2022-12-11T13:26:43.585Z,12.55
2022-12-11T13:29:29.410Z,14.63
2022-12-11T13:32:02.152Z,14.63
2022-12-11T13:34:33.731Z,12.52
2022-12-11T13:37:04.504Z,12.48
2022-12-11T13:39:35.199Z,13.68
2022-12-11T13:42:05.791Z,13.95
2022-12-11T13:44:39.716Z,13.13
2022-12-11T13:47:13.786Z,14.30
2022-12-11T13:49:43.495Z,13.50
2022-12-11T13:52:27.932Z,13.45
2022-12-11T13:54:59.328Z,13.18
2022-12-11T13:57:30.499Z,13.98
2022-12-11T13:59:59.740Z,13.77
2022-12-11T14:02:32.599Z,12.87
2022-12-11T14:05:03.684Z,14.00
2022-12-11T14:07:36.734Z,15.10
2022-12-11T14:10:14.620Z,14.38
2022-12-11T14:12:59.853Z,15.25
2022-12-11T14:15:28.844Z,16.10
2022-12-11T14:17:57.151Z,15.65
2022-12-11T14:20:28.103Z,16.30
2022-12-11T14:23:19.954Z,15.63
2022-12-11T14:25:53.985Z,16.08
2022-12-11T14:28:21.519Z,17.40
2022-12-11T14:30:52.233Z,15.30
2022-12-11T14:33:25.785Z,14.98
2022-12-11T14:35:55.103Z,14.65
2022-12-11T14:38:30.624Z,13.83
2022-12-11T14:41:03.635Z,14.50
2022-12-11T14:43:37.751Z,13.90
2022-12-11T14:46:11.153Z,14.05
2022-12-11T14:48:47.311Z,13.35
2022-12-11T14:51:17.863Z,12.68
2022-12-11T14:53:48.932Z,13.52
2022-12-11T14:56:21.265Z,14.63
2022-12-11T15:01:37.923Z,13.40
2022-12-11T15:04:19.900Z,12.90
2022-12-11T15:06:48.819Z,13.02
2022-12-11T15:09:38.373Z,12.55
2022-12-11T15:12:16.988Z,12.77
2022-12-11T15:14:57.466Z,12.85
2022-12-11T15:17:26.397Z,13.20
2022-12-11T15:20:09.086Z,14.35
2022-12-11T15:22:37.078Z,12.95
2022-12-11T15:25:04.369Z,13.52
2022-12-11T15:27:37.056Z,14.60
2022-12-11T15:30:28.551Z,13.00
2022-12-11T15:33:02.811Z,13.25
2022-12-11T15:35:29.699Z,12.48
2022-12-11T15:37:58.475Z,13.77
2022-12-11T15:40:26.429Z,15.30
2022-12-11T15:42:55.082Z,15.55
2022-12-11T15:45:25.581Z,16.38
2022-12-11T15:47:52.639Z,16.17
2022-12-11T15:50:30.420Z,15.80
2022-12-11T15:52:58.292Z,15.48
2022-12-11T15:55:27.437Z,14.85
2022-12-11T15:57:55.978Z,15.25
2022-12-11T16:00:24.188Z,16.55
2022-12-11T16:02:52.285Z,18.13
2022-12-11T16:05:20.344Z,19.55
2022-12-11T16:07:47.845Z,21.10
2022-12-11T16:10:17.843Z,23.40
2022-12-11T16:12:45.780Z,21.40
2022-12-11T16:15:19.906Z,24.05
2022-12-11T16:17:50.086Z,22.55
2022-12-11T16:20:17.779Z,20.60
2022-12-11T16:22:44.842Z,19.35
2022-12-11T16:25:12.012Z,21.10
2022-12-11T16:27:39.180Z,19.48
2022-12-11T16:30:06.712Z,20.15
2022-12-11T16:32:33.788Z,20.23
2022-12-11T16:35:01.328Z,21.17
2022-12-11T16:37:28.618Z,21.73
2022-12-11T16:39:55.635Z,22.45
2022-12-11T16:42:22.511Z,23.48
2022-12-11T16:44:49.442Z,26.02
2022-12-11T16:47:16.331Z,25.55
2022-12-11T16:49:45.765Z,26.40
2022-12-11T16:52:15.339Z,25.75
2022-12-11T16:54:46.571Z,25.92
2022-12-11T16:57:13.354Z,26.80
2022-12-11T16:59:40.277Z,24.83
2022-12-11T17:02:07.318Z,25.75
2022-12-11T17:04:34.320Z,27.95
2022-12-11T17:07:01.093Z,27.65
2022-12-11T17:09:27.970Z,29.15
2022-12-11T17:11:55.839Z,26.40
2022-12-11T17:14:22.803Z,29.13
2022-12-11T17:16:49.855Z,28.70
2022-12-11T17:19:17.675Z,31.20
2022-12-11T17:21:51.188Z,31.90
2022-12-11T17:24:18.345Z,30.55
2022-12-11T17:26:45.317Z,33.50
2022-12-11T17:29:13.049Z,31.77
2022-12-11T17:31:41.711Z,32.25
2022-12-11T17:34:08.561Z,30.70
2022-12-11T17:36:35.393Z,32.63
2022-12-11T17:39:04.023Z,32.35
2022-12-11T17:41:30.854Z,30.30
2022-12-11T17:43:57.724Z,33.40
2022-12-11T17:46:24.963Z,34.30
2022-12-11T17:48:51.975Z,32.72
2022-12-11T17:51:24.656Z,33.67
2022-12-11T17:53:55.433Z,35.17
2022-12-11T17:58:49.930Z,33.67
2022-12-11T18:01:17.385Z,35.15
2022-12-11T18:03:44.235Z,33.28
2022-12-11T18:06:13.288Z,34.45
2022-12-11T18:08:41.023Z,38.08
2022-12-11T18:11:10.811Z,32.03
2022-12-11T18:13:37.749Z,32.97
2022-12-11T18:16:26.247Z,31.98
2022-12-11T18:18:53.590Z,33.58
2022-12-11T18:21:23.568Z,34.90
2022-12-11T18:23:50.860Z,34.97
2022-12-11T18:26:20.637Z,36.85
2022-12-11T18:28:49.594Z,35.15
2022-12-11T18:31:17.171Z,35.47
2022-12-11T18:33:45.515Z,37.85
2022-12-11T18:36:15.385Z,36.03
2022-12-11T18:38:42.947Z,34.30
2022-12-11T18:41:11.614Z,36.05
2022-12-11T18:43:40.154Z,34.65
2022-12-11T18:46:09.161Z,35.65
2022-12-11T18:48:36.462Z,34.08
2022-12-11T18:51:10.799Z,32.92
2022-12-11T18:53:39.410Z,31.85
2022-12-11T18:56:15.530Z,30.33
2022-12-11T18:58:43.186Z,29.80
2022-12-11T19:01:14.140Z,28.38
2022-12-11T19:03:44.086Z,28.50
2022-12-11T19:06:14.283Z,26.85
2022-12-11T19:08:41.391Z,27.20
2022-12-11T19:11:08.613Z,28.88
2022-12-11T19:13:36.222Z,29.98
2022-12-11T19:16:03.490Z,29.38
2022-12-11T19:18:30.384Z,32.15
2022-12-11T19:21:06.697Z,31.40
2022-12-11T19:23:35.584Z,32.72
2022-12-11T19:26:02.603Z,33.75
2022-12-11T19:28:29.580Z,34.90
2022-12-11T19:30:56.669Z,31.27
2022-12-11T19:33:23.571Z,30.15
2022-12-11T19:35:59.965Z,33.75
2022-12-11T19:38:26.892Z,33.90
2022-12-11T19:40:54.253Z,33.58
2022-12-11T19:43:21.228Z,32.00
2022-12-11T19:45:48.402Z,31.15
2022-12-11T19:48:15.313Z,34.08
2022-12-11T19:50:42.285Z,30.70
2022-12-11T19:53:09.097Z,32.10
2022-12-11T19:55:35.892Z,29.17
2022-12-11T19:58:02.772Z,28.50
2022-12-11T20:00:29.779Z,28.10
2022-12-11T20:02:56.601Z,28.25
2022-12-11T20:05:23.444Z,28.83
2022-12-11T20:07:50.358Z,27.48
2022-12-11T20:10:17.242Z,23.83
2022-12-11T20:12:44.127Z,22.38
2022-12-11T20:15:11.724Z,21.95
2022-12-11T20:17:43.431Z,23.02
2022-12-11T20:20:11.529Z,22.90
2022-12-11T20:22:38.435Z,22.48
2022-12-11T20:25:05.693Z,22.52
2022-12-11T20:27:32.451Z,24.52
2022-12-11T20:29:59.284Z,23.42
2022-12-11T20:32:26.137Z,25.20
2022-12-11T20:34:56.753Z,24.83
2022-12-11T20:37:26.093Z,24.38
2022-12-11T20:39:53.004Z,26.05
2022-12-11T20:42:19.769Z,25.17
2022-12-11T20:44:49.127Z,25.30
2022-12-11T20:47:19.884Z,25.75
2022-12-11T20:52:14.184Z,24.00
2022-12-11T20:54:41.030Z,24.38
2022-12-11T20:57:07.873Z,23.10
2022-12-11T20:59:34.824Z,25.08
2022-12-11T21:02:01.734Z,25.60
2022-12-11T21:04:28.619Z,23.85
2022-12-11T21:06:55.587Z,25.00
2022-12-11T21:09:24.877Z,23.83
2022-12-11T21:11:52.394Z,24.33
2022-12-11T21:14:19.891Z,27.33
2022-12-11T21:16:47.534Z,26.40
2022-12-11T21:19:17.023Z,26.05
2022-12-11T21:21:45.452Z,23.55
2022-12-11T21:24:18.820Z,24.52
2022-12-11T21:26:46.219Z,24.98
2022-12-11T21:29:13.334Z,25.08
2022-12-11T21:31:41.857Z,24.35
2022-12-11T21:34:08.823Z,27.27
2022-12-11T21:36:35.823Z,27.55
2022-12-11T21:39:04.515Z,26.10
2022-12-11T21:41:31.380Z,27.88
2022-12-11T21:46:45.164Z,25.70
2022-12-11T21:49:12.182Z,26.75
2022-12-11T21:51:46.738Z,27.27
2022-12-11T21:54:17.569Z,26.88
2022-12-11T21:56:45.018Z,25.58
2022-12-11T21:59:12.085Z,27.40
2022-12-11T22:01:43.185Z,27.02
2022-12-11T22:04:11.325Z,26.70
2022-12-11T22:06:38.305Z,25.85
2022-12-11T22:09:05.978Z,24.70
2022-12-11T22:11:34.417Z,26.60
2022-12-11T22:14:01.898Z,25.35
2022-12-11T22:16:30.302Z,25.80
2022-12-11T22:18:57.146Z,28.48
2022-12-11T22:21:25.020Z,28.38
2022-12-11T22:23:52.185Z,28.55
2022-12-11T22:26:22.906Z,28.40
2022-12-11T22:28:50.237Z,30.17
2022-12-11T22:31:22.355Z,27.63
2022-12-11T22:33:50.775Z,28.88
2022-12-11T22:36:20.354Z,27.33
2022-12-11T22:38:47.675Z,26.15
2022-12-11T22:41:22.309Z,25.65
2022-12-11T22:43:49.990Z,27.08
2022-12-11T22:46:18.581Z,22.88
2022-12-11T22:48:45.583Z,25.20
2022-12-11T22:51:12.492Z,26.65
2022-12-11T22:53:39.430Z,28.45
2022-12-11T22:56:07.548Z,25.35
2022-12-11T22:58:34.904Z,26.15
2022-12-11T23:01:02.435Z,24.40
2022-12-11T23:03:29.446Z,23.35
2022-12-11T23:05:58.756Z,24.17
2022-12-11T23:08:27.727Z,24.88
2022-12-11T23:10:54.929Z,25.05
2022-12-11T23:13:21.843Z,24.25
2022-12-11T23:15:48.834Z,18.95
2022-12-11T23:18:15.685Z,21.05
2022-12-11T23:20:43.041Z,19.77
2022-12-11T23:23:10.234Z,20.00
2022-12-11T23:25:37.030Z,19.05
2022-12-11T23:28:04.200Z,18.08
2022-12-11T23:30:33.460Z,16.92
2022-12-11T23:33:00.645Z,18.37
2022-12-11T23:35:27.555Z,18.95
2022-12-11T23:37:54.356Z,20.45
2022-12-11T23:40:21.368Z,20.92
2022-12-11T23:42:48.440Z,28.42
2022-12-11T23:45:15.766Z,22.80
2022-12-11T23:47:43.015Z,25.20
2022-12-11T23:50:10.129Z,23.33
2022-12-11T23:52:36.977Z,23.40
2022-12-11T23:55:04.095Z,23.77
2022-12-11T23:57:30.940Z,24.38
2022-12-11T23:59:57.837Z,24.38
